sensor_id;sensor_type;location;lat;lon;timestamp;pressure;altitude;pressure_sealevel;temperature;humidity
62952;BME280;52163;52.212;-1.002;2022-12-20T00:01:28;99111.48;;;11.98;100.00
62952;BME280;52163;52.212;-1.002;2022-12-20T00:03:56;99110.23;;;11.98;100.00
62952;BME280;52163;52.212;-1.002;2022-12-20T00:06:22;99114.11;;;11.98;100.00
62952;BME280;52163;52.212;-1.002;2022-12-20T00:08:54;99114.29;;;11.98;100.00
62952;BME280;52163;52.212;-1.002;2022-12-20T00:11:20;99114.95;;;11.99;100.00
62952;BME280;52163;52.212;-1.002;2022-12-20T00:13:47;99115.42;;;11.99;100.00
62952;BME280;52163;52.212;-1.002;2022-12-20T00:16:15;99112.84;;;11.99;100.00
62952;BME280;52163;52.212;-1.002;2022-12-20T00:18:41;99113.86;;;11.99;100.00
62952;BME280;52163;52.212;-1.002;2022-12-20T00:21:09;99111.77;;;11.98;100.00
62952;BME280;52163;52.212;-1.002;2022-12-20T00:23:35;99111.84;;;12.00;100.00
62952;BME280;52163;52.212;-1.002;2022-12-20T00:26:03;99107.04;;;12.00;100.00
62952;BME280;52163;52.212;-1.002;2022-12-20T00:28:31;99104.20;;;12.00;100.00
62952;BME280;52163;52.212;-1.002;2022-12-20T00:30:57;99106.02;;;11.99;100.00
62952;BME280;52163;52.212;-1.002;2022-12-20T00:33:22;99109.88;;;11.98;100.00
62952;BME280;52163;52.212;-1.002;2022-12-20T00:35:48;99110.52;;;11.97;100.00
62952;BME280;52163;52.212;-1.002;2022-12-20T00:38:13;99109.33;;;11.96;100.00
62952;BME280;52163;52.212;-1.002;2022-12-20T00:40:38;99105.59;;;11.96;100.00
62952;BME280;52163;52.212;-1.002;2022-12-20T00:43:04;99106.52;;;11.96;100.00
62952;BME280;52163;52.212;-1.002;2022-12-20T00:45:30;99105.70;;;11.97;100.00
62952;BME280;52163;52.212;-1.002;2022-12-20T00:47:55;99099.87;;;11.97;100.00
62952;BME280;52163;52.212;-1.002;2022-12-20T00:50:20;99104.77;;;11.97;100.00
62952;BME280;52163;52.212;-1.002;2022-12-20T00:52:46;99098.21;;;11.98;100.00
62952;BME280;52163;52.212;-1.002;2022-12-20T00:55:11;99098.44;;;11.97;100.00
62952;BME280;52163;52.212;-1.002;2022-12-20T00:57:37;99091.20;;;11.97;100.00
62952;BME280;52163;52.212;-1.002;2022-12-20T01:00:03;99092.63;;;11.97;100.00
62952;BME280;52163;52.212;-1.002;2022-12-20T01:02:29;99094.16;;;11.98;100.00
62952;BME280;52163;52.212;-1.002;2022-12-20T01:04:54;99093.66;;;11.97;100.00
62952;BME280;52163;52.212;-1.002;2022-12-20T01:07:19;99093.42;;;11.96;100.00
62952;BME280;52163;52.212;-1.002;2022-12-20T01:09:47;99093.27;;;11.94;100.00
62952;BME280;52163;52.212;-1.002;2022-12-20T01:12:13;99087.51;;;11.93;100.00
62952;BME280;52163;52.212;-1.002;2022-12-20T01:14:39;99087.73;;;11.92;100.00
62952;BME280;52163;52.212;-1.002;2022-12-20T01:17:04;99088.52;;;11.91;100.00
62952;BME280;52163;52.212;-1.002;2022-12-20T01:19:30;99102.40;;;11.90;100.00
62952;BME280;52163;52.212;-1.002;2022-12-20T01:21:55;99098.12;;;11.89;100.00
62952;BME280;52163;52.212;-1.002;2022-12-20T01:24:20;99102.91;;;11.88;100.00
62952;BME280;52163;52.212;-1.002;2022-12-20T01:26:46;99104.80;;;11.89;100.00
62952;BME280;52163;52.212;-1.002;2022-12-20T01:29:13;99105.27;;;11.90;100.00
62952;BME280;52163;52.212;-1.002;2022-12-20T01:31:39;99101.58;;;11.89;100.00
62952;BME280;52163;52.212;-1.002;2022-12-20T01:34:05;99103.79;;;11.88;100.00
62952;BME280;52163;52.212;-1.002;2022-12-20T01:36:35;99099.69;;;11.89;100.00
62952;BME280;52163;52.212;-1.002;2022-12-20T01:39:05;99099.18;;;11.88;100.00
62952;BME280;52163;52.212;-1.002;2022-12-20T01:41:33;99095.21;;;11.89;100.00
62952;BME280;52163;52.212;-1.002;2022-12-20T01:46:40;99093.96;;;11.89;100.00
62952;BME280;52163;52.212;-1.002;2022-12-20T01:49:22;99089.88;;;11.88;100.00
62952;BME280;52163;52.212;-1.002;2022-12-20T01:52:02;99088.64;;;11.84;100.00
62952;BME280;52163;52.212;-1.002;2022-12-20T01:57:20;99081.59;;;11.81;100.00
62952;BME280;52163;52.212;-1.002;2022-12-20T01:59:47;99082.05;;;11.80;100.00
62952;BME280;52163;52.212;-1.002;2022-12-20T02:02:14;99085.64;;;11.79;100.00
62952;BME280;52163;52.212;-1.002;2022-12-20T02:04:40;99082.15;;;11.79;100.00
62952;BME280;52163;52.212;-1.002;2022-12-20T02:07:07;99082.29;;;11.79;100.00
62952;BME280;52163;52.212;-1.002;2022-12-20T02:09:34;99083.66;;;11.80;100.00
62952;BME280;52163;52.212;-1.002;2022-12-20T02:12:10;99080.46;;;11.80;100.00
62952;BME280;52163;52.212;-1.002;2022-12-20T02:17:28;99077.63;;;11.80;100.00
62952;BME280;52163;52.212;-1.002;2022-12-20T02:23:13;99070.81;;;11.81;100.00
62952;BME280;52163;52.212;-1.002;2022-12-20T02:30:59;99061.14;;;11.87;100.00
62952;BME280;52163;52.212;-1.002;2022-12-20T02:33:28;99058.17;;;11.86;100.00
62952;BME280;52163;52.212;-1.002;2022-12-20T02:35:53;99053.83;;;11.85;100.00
62952;BME280;52163;52.212;-1.002;2022-12-20T02:38:34;99048.46;;;11.84;100.00
62952;BME280;52163;52.212;-1.002;2022-12-20T02:41:22;99050.56;;;11.82;100.00
62952;BME280;52163;52.212;-1.002;2022-12-20T02:43:55;99046.00;;;11.82;100.00
62952;BME280;52163;52.212;-1.002;2022-12-20T02:46:41;99041.17;;;11.82;100.00
62952;BME280;52163;52.212;-1.002;2022-12-20T02:49:13;99036.36;;;11.83;100.00
62952;BME280;52163;52.212;-1.002;2022-12-20T02:51:42;99039.01;;;11.83;100.00
62952;BME280;52163;52.212;-1.002;2022-12-20T02:54:08;99045.43;;;11.84;100.00
62952;BME280;52163;52.212;-1.002;2022-12-20T02:56:37;99033.84;;;11.85;100.00
62952;BME280;52163;52.212;-1.002;2022-12-20T03:01:43;99026.91;;;11.87;100.00
62952;BME280;52163;52.212;-1.002;2022-12-20T03:04:10;99021.58;;;11.88;100.00
62952;BME280;52163;52.212;-1.002;2022-12-20T03:06:38;99013.34;;;11.89;100.00
62952;BME280;52163;52.212;-1.002;2022-12-20T03:09:04;99004.03;;;11.90;100.00
62952;BME280;52163;52.212;-1.002;2022-12-20T03:11:29;99002.59;;;11.90;100.00
62952;BME280;52163;52.212;-1.002;2022-12-20T03:13:55;99009.61;;;11.91;100.00
62952;BME280;52163;52.212;-1.002;2022-12-20T03:16:20;99008.53;;;11.91;100.00
62952;BME280;52163;52.212;-1.002;2022-12-20T03:18:46;99003.39;;;11.91;100.00
62952;BME280;52163;52.212;-1.002;2022-12-20T03:21:12;99006.35;;;11.92;100.00
62952;BME280;52163;52.212;-1.002;2022-12-20T03:23:37;99006.13;;;11.93;100.00
62952;BME280;52163;52.212;-1.002;2022-12-20T03:26:03;98996.45;;;11.94;100.00
62952;BME280;52163;52.212;-1.002;2022-12-20T03:28:28;98996.05;;;11.95;100.00
62952;BME280;52163;52.212;-1.002;2022-12-20T03:30:54;98989.69;;;11.96;100.00
62952;BME280;52163;52.212;-1.002;2022-12-20T03:33:19;98986.80;;;11.97;100.00
62952;BME280;52163;52.212;-1.002;2022-12-20T03:35:46;98981.85;;;11.97;100.00
62952;BME280;52163;52.212;-1.002;2022-12-20T03:38:12;98987.02;;;11.97;100.00
62952;BME280;52163;52.212;-1.002;2022-12-20T03:40:37;98991.15;;;11.96;100.00
62952;BME280;52163;52.212;-1.002;2022-12-20T03:43:03;98981.81;;;11.93;100.00
62952;BME280;52163;52.212;-1.002;2022-12-20T03:45:28;98984.64;;;11.91;100.00
62952;BME280;52163;52.212;-1.002;2022-12-20T03:47:54;98984.25;;;11.92;100.00
62952;BME280;52163;52.212;-1.002;2022-12-20T03:50:20;98968.58;;;11.91;100.00
62952;BME280;52163;52.212;-1.002;2022-12-20T03:52:45;98965.38;;;11.91;100.00
62952;BME280;52163;52.212;-1.002;2022-12-20T03:55:10;98958.15;;;11.91;100.00
62952;BME280;52163;52.212;-1.002;2022-12-20T03:57:37;98949.39;;;11.92;100.00
62952;BME280;52163;52.212;-1.002;2022-12-20T04:00:03;98948.21;;;11.93;100.00
62952;BME280;52163;52.212;-1.002;2022-12-20T04:02:29;98948.45;;;11.94;100.00
62952;BME280;52163;52.212;-1.002;2022-12-20T04:04:54;98947.27;;;11.94;100.00
62952;BME280;52163;52.212;-1.002;2022-12-20T04:07:19;98950.52;;;11.94;100.00
62952;BME280;52163;52.212;-1.002;2022-12-20T04:09:45;98953.84;;;11.91;100.00
62952;BME280;52163;52.212;-1.002;2022-12-20T04:12:10;98951.64;;;11.90;100.00
62952;BME280;52163;52.212;-1.002;2022-12-20T04:14:35;98946.43;;;11.89;100.00
62952;BME280;52163;52.212;-1.002;2022-12-20T04:17:02;98941.87;;;11.89;100.00
62952;BME280;52163;52.212;-1.002;2022-12-20T04:19:27;98935.50;;;11.89;100.00
62952;BME280;52163;52.212;-1.002;2022-12-20T04:21:52;98928.21;;;11.89;100.00
62952;BME280;52163;52.212;-1.002;2022-12-20T04:24:20;98925.73;;;11.89;100.00
62952;BME280;52163;52.212;-1.002;2022-12-20T04:26:46;98928.52;;;11.90;100.00
62952;BME280;52163;52.212;-1.002;2022-12-20T04:29:13;98975.62;;;11.89;100.00
62952;BME280;52163;52.212;-1.002;2022-12-20T04:31:39;99053.32;;;11.85;100.00
62952;BME280;52163;52.212;-1.002;2022-12-20T04:34:05;99055.45;;;11.48;100.00
62952;BME280;52163;52.212;-1.002;2022-12-20T04:36:30;99070.27;;;10.99;100.00
62952;BME280;52163;52.212;-1.002;2022-12-20T04:38:55;99060.88;;;10.48;100.00
62952;BME280;52163;52.212;-1.002;2022-12-20T04:41:21;99074.33;;;10.08;100.00
62952;BME280;52163;52.212;-1.002;2022-12-20T04:43:51;99079.44;;;9.80;100.00
62952;BME280;52163;52.212;-1.002;2022-12-20T04:46:17;99084.05;;;9.57;100.00
62952;BME280;52163;52.212;-1.002;2022-12-20T04:48:42;99077.85;;;9.41;100.00
62952;BME280;52163;52.212;-1.002;2022-12-20T04:51:08;99076.19;;;9.31;100.00
62952;BME280;52163;52.212;-1.002;2022-12-20T04:53:33;99079.29;;;9.22;100.00
62952;BME280;52163;52.212;-1.002;2022-12-20T04:58:39;99083.16;;;9.09;100.00
62952;BME280;52163;52.212;-1.002;2022-12-20T05:01:05;99086.89;;;9.06;100.00
62952;BME280;52163;52.212;-1.002;2022-12-20T05:03:30;99089.92;;;9.03;100.00
62952;BME280;52163;52.212;-1.002;2022-12-20T05:05:55;99102.21;;;9.02;100.00
62952;BME280;52163;52.212;-1.002;2022-12-20T05:08:21;99108.04;;;8.99;100.00
62952;BME280;52163;52.212;-1.002;2022-12-20T05:10:47;99115.44;;;8.99;100.00
62952;BME280;52163;52.212;-1.002;2022-12-20T05:13:13;99121.66;;;9.03;100.00
62952;BME280;52163;52.212;-1.002;2022-12-20T05:15:38;99130.39;;;9.06;100.00
62952;BME280;52163;52.212;-1.002;2022-12-20T05:18:04;99135.19;;;9.08;100.00
62952;BME280;52163;52.212;-1.002;2022-12-20T05:20:30;99136.92;;;9.06;100.00
62952;BME280;52163;52.212;-1.002;2022-12-20T05:22:57;99142.37;;;9.02;100.00
62952;BME280;52163;52.212;-1.002;2022-12-20T05:25:47;99149.49;;;8.98;100.00
62952;BME280;52163;52.212;-1.002;2022-12-20T05:28:32;99149.05;;;8.95;100.00
62952;BME280;52163;52.212;-1.002;2022-12-20T05:30:58;99150.06;;;8.95;100.00
62952;BME280;52163;52.212;-1.002;2022-12-20T05:33:23;99156.04;;;8.95;100.00
62952;BME280;52163;52.212;-1.002;2022-12-20T05:35:49;99161.77;;;8.94;100.00
62952;BME280;52163;52.212;-1.002;2022-12-20T05:38:14;99172.02;;;8.96;100.00
62952;BME280;52163;52.212;-1.002;2022-12-20T05:40:40;99176.75;;;8.96;100.00
62952;BME280;52163;52.212;-1.002;2022-12-20T05:43:06;99177.59;;;8.97;100.00
62952;BME280;52163;52.212;-1.002;2022-12-20T05:45:32;99176.73;;;8.94;100.00
62952;BME280;52163;52.212;-1.002;2022-12-20T05:47:57;99175.10;;;8.95;100.00
62952;BME280;52163;52.212;-1.002;2022-12-20T05:50:23;99173.48;;;8.95;100.00
62952;BME280;52163;52.212;-1.002;2022-12-20T05:52:49;99177.39;;;8.95;100.00
62952;BME280;52163;52.212;-1.002;2022-12-20T05:55:14;99184.52;;;8.94;100.00
62952;BME280;52163;52.212;-1.002;2022-12-20T05:57:39;99184.30;;;8.91;100.00
62952;BME280;52163;52.212;-1.002;2022-12-20T06:00:06;99184.98;;;8.87;100.00
62952;BME280;52163;52.212;-1.002;2022-12-20T06:02:32;99187.25;;;8.83;100.00
62952;BME280;52163;52.212;-1.002;2022-12-20T06:04:58;99187.27;;;8.78;100.00
62952;BME280;52163;52.212;-1.002;2022-12-20T06:07:24;99198.77;;;8.72;100.00
62952;BME280;52163;52.212;-1.002;2022-12-20T06:09:50;99201.68;;;8.63;100.00
62952;BME280;52163;52.212;-1.002;2022-12-20T06:12:15;99215.30;;;8.52;100.00
62952;BME280;52163;52.212;-1.002;2022-12-20T06:14:40;99221.95;;;8.43;100.00
62952;BME280;52163;52.212;-1.002;2022-12-20T06:17:06;99225.96;;;8.36;100.00
62952;BME280;52163;52.212;-1.002;2022-12-20T06:19:31;99221.94;;;8.31;100.00
62952;BME280;52163;52.212;-1.002;2022-12-20T06:21:57;99225.89;;;8.25;100.00
62952;BME280;52163;52.212;-1.002;2022-12-20T06:24:23;99227.45;;;8.22;100.00
62952;BME280;52163;52.212;-1.002;2022-12-20T06:26:50;99233.48;;;8.19;100.00
62952;BME280;52163;52.212;-1.002;2022-12-20T06:29:16;99235.98;;;8.21;100.00
62952;BME280;52163;52.212;-1.002;2022-12-20T06:31:42;99239.63;;;8.22;100.00
62952;BME280;52163;52.212;-1.002;2022-12-20T06:34:08;99246.10;;;8.22;100.00
62952;BME280;52163;52.212;-1.002;2022-12-20T06:36:34;99249.98;;;8.20;100.00
62952;BME280;52163;52.212;-1.002;2022-12-20T06:39:00;99262.17;;;8.14;100.00
62952;BME280;52163;52.212;-1.002;2022-12-20T06:41:25;99269.67;;;8.10;100.00
62952;BME280;52163;52.212;-1.002;2022-12-20T06:43:50;99280.57;;;8.07;100.00
62952;BME280;52163;52.212;-1.002;2022-12-20T06:46:16;99294.39;;;8.03;100.00
62952;BME280;52163;52.212;-1.002;2022-12-20T06:48:41;99299.23;;;8.02;100.00
62952;BME280;52163;52.212;-1.002;2022-12-20T06:51:07;99302.45;;;8.01;100.00
62952;BME280;52163;52.212;-1.002;2022-12-20T06:53:32;99306.38;;;7.97;100.00
62952;BME280;52163;52.212;-1.002;2022-12-20T06:55:57;99307.67;;;7.94;100.00
62952;BME280;52163;52.212;-1.002;2022-12-20T06:58:23;99313.47;;;7.92;100.00
62952;BME280;52163;52.212;-1.002;2022-12-20T07:00:48;99316.30;;;7.89;100.00
62952;BME280;52163;52.212;-1.002;2022-12-20T07:03:14;99319.72;;;7.84;100.00
62952;BME280;52163;52.212;-1.002;2022-12-20T07:05:40;99320.93;;;7.83;100.00
62952;BME280;52163;52.212;-1.002;2022-12-20T07:08:06;99322.91;;;7.82;100.00
62952;BME280;52163;52.212;-1.002;2022-12-20T07:10:36;99332.02;;;7.82;100.00
62952;BME280;52163;52.212;-1.002;2022-12-20T07:13:02;99341.54;;;7.82;100.00
62952;BME280;52163;52.212;-1.002;2022-12-20T07:15:27;99349.19;;;7.78;100.00
62952;BME280;52163;52.212;-1.002;2022-12-20T07:17:55;99346.83;;;7.74;100.00
62952;BME280;52163;52.212;-1.002;2022-12-20T07:20:21;99340.70;;;7.71;100.00
62952;BME280;52163;52.212;-1.002;2022-12-20T07:22:47;99338.33;;;7.69;100.00
62952;BME280;52163;52.212;-1.002;2022-12-20T07:25:13;99339.95;;;7.66;100.00
62952;BME280;52163;52.212;-1.002;2022-12-20T07:27:38;99342.19;;;7.67;100.00
62952;BME280;52163;52.212;-1.002;2022-12-20T07:30:04;99346.98;;;7.66;100.00
62952;BME280;52163;52.212;-1.002;2022-12-20T07:32:30;99350.66;;;7.64;100.00
62952;BME280;52163;52.212;-1.002;2022-12-20T07:34:56;99353.34;;;7.61;100.00
62952;BME280;52163;52.212;-1.002;2022-12-20T07:37:22;99355.48;;;7.57;100.00
62952;BME280;52163;52.212;-1.002;2022-12-20T07:39:47;99364.10;;;7.54;100.00
62952;BME280;52163;52.212;-1.002;2022-12-20T07:42:13;99367.98;;;7.51;100.00
62952;BME280;52163;52.212;-1.002;2022-12-20T07:44:38;99371.61;;;7.50;100.00
62952;BME280;52163;52.212;-1.002;2022-12-20T07:47:03;99379.89;;;7.49;100.00
62952;BME280;52163;52.212;-1.002;2022-12-20T07:49:29;99386.53;;;7.50;100.00
62952;BME280;52163;52.212;-1.002;2022-12-20T07:51:56;99386.41;;;7.52;100.00
62952;BME280;52163;52.212;-1.002;2022-12-20T07:54:27;99388.44;;;7.50;100.00
62952;BME280;52163;52.212;-1.002;2022-12-20T07:56:57;99390.87;;;7.48;100.00
62952;BME280;52163;52.212;-1.002;2022-12-20T07:59:35;99395.06;;;7.46;100.00
62952;BME280;52163;52.212;-1.002;2022-12-20T08:02:02;99405.02;;;7.38;100.00
62952;BME280;52163;52.212;-1.002;2022-12-20T08:04:28;99409.17;;;7.34;100.00
62952;BME280;52163;52.212;-1.002;2022-12-20T08:06:57;99408.33;;;7.31;100.00
62952;BME280;52163;52.212;-1.002;2022-12-20T08:09:26;99416.40;;;7.28;100.00
62952;BME280;52163;52.212;-1.002;2022-12-20T08:11:53;99417.03;;;7.26;100.00
62952;BME280;52163;52.212;-1.002;2022-12-20T08:14:20;99425.56;;;7.22;100.00
62952;BME280;52163;52.212;-1.002;2022-12-20T08:16:45;99434.94;;;7.15;100.00
62952;BME280;52163;52.212;-1.002;2022-12-20T08:19:11;99437.63;;;7.09;100.00
62952;BME280;52163;52.212;-1.002;2022-12-20T08:21:37;99444.24;;;7.04;100.00
62952;BME280;52163;52.212;-1.002;2022-12-20T08:24:03;99451.25;;;7.02;100.00
62952;BME280;52163;52.212;-1.002;2022-12-20T08:26:28;99452.80;;;6.99;100.00
62952;BME280;52163;52.212;-1.002;2022-12-20T08:28:54;99459.02;;;6.97;100.00
62952;BME280;52163;52.212;-1.002;2022-12-20T08:31:20;99457.43;;;6.98;100.00
62952;BME280;52163;52.212;-1.002;2022-12-20T08:33:46;99464.91;;;6.99;100.00
62952;BME280;52163;52.212;-1.002;2022-12-20T08:36:12;99472.38;;;6.97;100.00
62952;BME280;52163;52.212;-1.002;2022-12-20T08:38:39;99473.00;;;6.96;100.00
62952;BME280;52163;52.212;-1.002;2022-12-20T08:41:07;99485.89;;;6.92;100.00
62952;BME280;52163;52.212;-1.002;2022-12-20T08:43:34;99486.67;;;6.85;100.00
62952;BME280;52163;52.212;-1.002;2022-12-20T08:46:00;99491.46;;;6.81;100.00
62952;BME280;52163;52.212;-1.002;2022-12-20T08:48:26;99495.77;;;6.80;100.00
62952;BME280;52163;52.212;-1.002;2022-12-20T08:51:00;99501.98;;;6.75;100.00
62952;BME280;52163;52.212;-1.002;2022-12-20T08:53:27;99508.48;;;6.72;100.00
62952;BME280;52163;52.212;-1.002;2022-12-20T08:55:53;99514.29;;;6.69;100.00
62952;BME280;52163;52.212;-1.002;2022-12-20T08:58:19;99523.22;;;6.66;100.00
62952;BME280;52163;52.212;-1.002;2022-12-20T09:00:45;99527.41;;;6.64;100.00
62952;BME280;52163;52.212;-1.002;2022-12-20T09:03:12;99527.77;;;6.64;100.00
62952;BME280;52163;52.212;-1.002;2022-12-20T09:05:48;99526.65;;;6.65;100.00
62952;BME280;52163;52.212;-1.002;2022-12-20T09:08:14;99528.59;;;6.68;100.00
62952;BME280;52163;52.212;-1.002;2022-12-20T09:10:40;99531.59;;;6.71;100.00
62952;BME280;52163;52.212;-1.002;2022-12-20T09:13:05;99531.69;;;6.72;100.00
62952;BME280;52163;52.212;-1.002;2022-12-20T09:15:33;99535.32;;;6.73;100.00
62952;BME280;52163;52.212;-1.002;2022-12-20T09:17:58;99529.89;;;6.73;100.00
62952;BME280;52163;52.212;-1.002;2022-12-20T09:20:24;99535.13;;;6.70;100.00
62952;BME280;52163;52.212;-1.002;2022-12-20T09:22:50;99538.38;;;6.72;100.00
62952;BME280;52163;52.212;-1.002;2022-12-20T09:25:15;99539.71;;;6.73;100.00
62952;BME280;52163;52.212;-1.002;2022-12-20T09:27:40;99538.54;;;6.75;100.00
62952;BME280;52163;52.212;-1.002;2022-12-20T09:30:07;99540.65;;;6.75;100.00
62952;BME280;52163;52.212;-1.002;2022-12-20T09:32:32;99541.23;;;6.74;100.00
62952;BME280;52163;52.212;-1.002;2022-12-20T09:34:58;99542.02;;;6.72;100.00
62952;BME280;52163;52.212;-1.002;2022-12-20T09:37:23;99538.77;;;6.71;100.00
62952;BME280;52163;52.212;-1.002;2022-12-20T09:39:49;99536.29;;;6.71;100.00
62952;BME280;52163;52.212;-1.002;2022-12-20T09:42:17;99537.64;;;6.72;100.00
62952;BME280;52163;52.212;-1.002;2022-12-20T09:44:47;99543.52;;;6.73;100.00
62952;BME280;52163;52.212;-1.002;2022-12-20T09:47:14;99544.33;;;6.75;100.00
62952;BME280;52163;52.212;-1.002;2022-12-20T09:49:43;99547.90;;;6.77;100.00
62952;BME280;52163;52.212;-1.002;2022-12-20T09:52:23;99554.38;;;6.80;100.00
62952;BME280;52163;52.212;-1.002;2022-12-20T09:59:50;99555.36;;;6.84;100.00
62952;BME280;52163;52.212;-1.002;2022-12-20T10:02:21;99556.44;;;6.87;100.00
62952;BME280;52163;52.212;-1.002;2022-12-20T10:04:48;99559.40;;;6.90;100.00
62952;BME280;52163;52.212;-1.002;2022-12-20T10:15:38;99570.80;;;7.08;100.00
62952;BME280;52163;52.212;-1.002;2022-12-20T10:21:00;99569.88;;;7.12;100.00
62952;BME280;52163;52.212;-1.002;2022-12-20T10:24:31;99568.05;;;7.13;100.00
62952;BME280;52163;52.212;-1.002;2022-12-20T10:26:23;99574.80;;;7.17;100.00
62952;BME280;52163;52.212;-1.002;2022-12-20T10:28:49;99574.52;;;7.22;100.00
62952;BME280;52163;52.212;-1.002;2022-12-20T10:31:16;99579.41;;;7.25;100.00
62952;BME280;52163;52.212;-1.002;2022-12-20T10:33:43;99581.16;;;7.29;100.00
62952;BME280;52163;52.212;-1.002;2022-12-20T10:36:23;99581.59;;;7.30;100.00
62952;BME280;52163;52.212;-1.002;2022-12-20T10:38:52;99582.90;;;7.32;100.00
62952;BME280;52163;52.212;-1.002;2022-12-20T10:41:27;99585.17;;;7.35;100.00
62952;BME280;52163;52.212;-1.002;2022-12-20T10:44:03;99587.50;;;7.37;100.00
62952;BME280;52163;52.212;-1.002;2022-12-20T10:46:49;99587.08;;;7.41;100.00
62952;BME280;52163;52.212;-1.002;2022-12-20T10:49:30;99588.45;;;7.44;100.00
62952;BME280;52163;52.212;-1.002;2022-12-20T10:52:19;99590.23;;;7.49;100.00
62952;BME280;52163;52.212;-1.002;2022-12-20T10:54:45;99594.98;;;7.52;100.00
62952;BME280;52163;52.212;-1.002;2022-12-20T10:57:26;99600.30;;;7.54;100.00
62952;BME280;52163;52.212;-1.002;2022-12-20T10:59:53;99599.54;;;7.55;100.00
62952;BME280;52163;52.212;-1.002;2022-12-20T11:02:34;99598.25;;;7.57;100.00
62952;BME280;52163;52.212;-1.002;2022-12-20T11:07:36;99582.23;;;7.63;100.00
62952;BME280;52163;52.212;-1.002;2022-12-20T11:10:22;99583.20;;;7.67;100.00
62952;BME280;52163;52.212;-1.002;2022-12-20T11:13:02;99587.00;;;7.70;100.00
62952;BME280;52163;52.212;-1.002;2022-12-20T11:15:35;99587.16;;;7.74;100.00
62952;BME280;52163;52.212;-1.002;2022-12-20T11:18:12;99583.70;;;7.76;100.00
62952;BME280;52163;52.212;-1.002;2022-12-20T11:31:50;99579.06;;;7.88;100.00
62952;BME280;52163;52.212;-1.002;2022-12-20T11:53:17;99588.77;;;8.01;100.00
62952;BME280;52163;52.212;-1.002;2022-12-20T11:55:46;99591.61;;;8.01;100.00
62952;BME280;52163;52.212;-1.002;2022-12-20T11:58:20;99589.93;;;7.99;100.00
62952;BME280;52163;52.212;-1.002;2022-12-20T12:00:58;99587.29;;;7.99;100.00
62952;BME280;52163;52.212;-1.002;2022-12-20T12:04:29;99593.04;;;8.00;100.00
62952;BME280;52163;52.212;-1.002;2022-12-20T12:07:33;99590.50;;;8.02;100.00
62952;BME280;52163;52.212;-1.002;2022-12-20T12:12:37;99587.40;;;8.06;100.00
62952;BME280;52163;52.212;-1.002;2022-12-20T12:18:26;99580.45;;;8.05;100.00
62952;BME280;52163;52.212;-1.002;2022-12-20T12:20:37;99581.19;;;8.04;100.00
62952;BME280;52163;52.212;-1.002;2022-12-20T12:25:44;99580.73;;;8.06;100.00
62952;BME280;52163;52.212;-1.002;2022-12-20T12:28:12;99582.19;;;8.07;100.00
62952;BME280;52163;52.212;-1.002;2022-12-20T12:30:49;99582.14;;;8.11;100.00
62952;BME280;52163;52.212;-1.002;2022-12-20T12:33:25;99583.30;;;8.12;100.00
62952;BME280;52163;52.212;-1.002;2022-12-20T12:46:48;99572.83;;;8.17;100.00
62952;BME280;52163;52.212;-1.002;2022-12-20T12:49:19;99571.33;;;8.18;100.00
62952;BME280;52163;52.212;-1.002;2022-12-20T12:51:52;99570.81;;;8.20;100.00
62952;BME280;52163;52.212;-1.002;2022-12-20T12:54:29;99565.02;;;8.20;100.00
62952;BME280;52163;52.212;-1.002;2022-12-20T12:57:01;99557.83;;;8.20;100.00
62952;BME280;52163;52.212;-1.002;2022-12-20T13:09:52;99567.35;;;8.22;100.00
62952;BME280;52163;52.212;-1.002;2022-12-20T13:17:59;99566.80;;;8.23;100.00
62952;BME280;52163;52.212;-1.002;2022-12-20T13:20:29;99568.80;;;8.22;100.00
62952;BME280;52163;52.212;-1.002;2022-12-20T13:30:44;99557.06;;;8.18;100.00
62952;BME280;52163;52.212;-1.002;2022-12-20T13:33:19;99558.27;;;8.16;100.00
62952;BME280;52163;52.212;-1.002;2022-12-20T13:35:56;99562.96;;;8.14;100.00
62952;BME280;52163;52.212;-1.002;2022-12-20T13:40:57;99560.29;;;8.17;100.00
62952;BME280;52163;52.212;-1.002;2022-12-20T13:43:27;99564.22;;;8.19;100.00
62952;BME280;52163;52.212;-1.002;2022-12-20T13:51:02;99548.95;;;8.16;100.00
62952;BME280;52163;52.212;-1.002;2022-12-20T13:53:28;99550.75;;;8.15;100.00
62952;BME280;52163;52.212;-1.002;2022-12-20T13:55:54;99552.94;;;8.13;100.00
62952;BME280;52163;52.212;-1.002;2022-12-20T13:58:26;99550.67;;;8.13;100.00
62952;BME280;52163;52.212;-1.002;2022-12-20T14:00:53;99547.05;;;8.12;100.00
62952;BME280;52163;52.212;-1.002;2022-12-20T14:03:26;99548.00;;;8.11;100.00
62952;BME280;52163;52.212;-1.002;2022-12-20T14:06:02;99548.77;;;8.10;100.00
62952;BME280;52163;52.212;-1.002;2022-12-20T14:08:33;99554.86;;;8.08;100.00
62952;BME280;52163;52.212;-1.002;2022-12-20T14:11:20;99558.19;;;8.06;100.00
62952;BME280;52163;52.212;-1.002;2022-12-20T14:13:54;99561.17;;;8.06;99.93
62952;BME280;52163;52.212;-1.002;2022-12-20T14:16:22;99560.81;;;8.06;99.99
62952;BME280;52163;52.212;-1.002;2022-12-20T14:19:12;99558.50;;;8.07;99.97
62952;BME280;52163;52.212;-1.002;2022-12-20T14:21:36;99561.75;;;8.05;99.98
62952;BME280;52163;52.212;-1.002;2022-12-20T14:24:04;99566.80;;;8.03;99.96
62952;BME280;52163;52.212;-1.002;2022-12-20T14:26:37;99561.45;;;8.02;99.97
62952;BME280;52163;52.212;-1.002;2022-12-20T14:29:10;99564.86;;;8.01;100.00
62952;BME280;52163;52.212;-1.002;2022-12-20T14:31:40;99565.91;;;8.01;99.98
62952;BME280;52163;52.212;-1.002;2022-12-20T14:36:36;99571.50;;;7.99;99.91
62952;BME280;52163;52.212;-1.002;2022-12-20T14:39:28;99573.99;;;7.98;99.94
62952;BME280;52163;52.212;-1.002;2022-12-20T14:44:31;99582.90;;;7.97;99.65
62952;BME280;52163;52.212;-1.002;2022-12-20T14:47:03;99578.78;;;7.98;99.81
62952;BME280;52163;52.212;-1.002;2022-12-20T14:49:37;99585.60;;;7.98;99.76
62952;BME280;52163;52.212;-1.002;2022-12-20T14:54:46;99590.30;;;7.96;99.83
62952;BME280;52163;52.212;-1.002;2022-12-20T14:57:36;99592.76;;;7.93;99.86
62952;BME280;52163;52.212;-1.002;2022-12-20T15:03:15;99595.01;;;7.85;99.81
62952;BME280;52163;52.212;-1.002;2022-12-20T15:05:56;99595.27;;;7.81;99.81
62952;BME280;52163;52.212;-1.002;2022-12-20T15:08:25;99599.11;;;7.79;99.87